Pacific Journey — 3FFE — position and weather

sailwx.info

Track history (hours):
 
Tides and Currents Weather Stations Pressure Air Temp Water Temp Dewpoint Dewpoint Depression Visibility Wind Speed Wind Dir Waves Ship Positions

Pacific Journey

Last reported at 2016-Jul-16 00:24 UTC. Time now 2016-Jul-28 16:28 UTC.
Position N 38°03' E 025°42'.
Warning: this ship's position is 12 days out of date.

Length 180 m; draft 10.7 m.

Type: Ship. MMSI: 371467000.

Date/timePositionNaut miles runAvg speedWind from/ knotsBaromVisibWave heightAir tempDewpointWater temp
2016-Jul-16 00:24N 38°03' E 025°42'1012.0
2016-Jul-15 23:33N 38°00' E 025°29'1 1.0
2016-Jul-15 22:31N 37°60' E 025°28'25 7.5
2016-Jul-15 19:07N 38°02' E 024°56'712.7
2016-Jul-15 18:33N 38°02' E 024°47'1111.5
2016-Jul-15 17:34N 37°55' E 024°36'1312.5
2016-Jul-15 16:33N 37°43' E 024°30'1712.1
2016-Jul-15 15:09N 37°28' E 024°20'712.1
2016-Jul-15 14:33N 37°22' E 024°14'1313.0
2016-Jul-15 13:34N 37°12' E 024°05'1212.2
2016-Jul-15 12:34N 37°02' E 023°56'1312.5
2016-Jul-15 11:33N 36°52' E 023°47'1312.6
2016-Jul-15 10:34N 36°41' E 023°39'1312.6
2016-Jul-15 09:33N 36°30' E 023°32'1312.7
2016-Jul-15 08:33N 36°19' E 023°24'1312.7
2016-Jul-15 07:33N 36°07' E 023°17'1212.2
2016-Jul-15 06:33N 36°01' E 023°04'32112.8
2016-Jul-14 05:32N 36°16' E 016°27'1212.5
2016-Jul-14 04:33N 36°17' E 016°12'1412.6
2016-Jul-14 03:25N 36°17' E 015°54'1112.7
2016-Jul-14 02:34N 36°18' E 015°41'1312.8
2016-Jul-14 01:34N 36°19' E 015°25'14212.7
2016-Jul-13 14:19N 36°51' E 012°33'1013.9
2016-Jul-13 13:33N 36°54' E 012°20'1312.9
2016-Jul-13 12:33N 36°59' E 012°05'1312.7
2016-Jul-13 11:33N 37°04' E 011°50'1312.9
2016-Jul-13 10:33N 37°10' E 011°36'1312.9
2016-Jul-13 09:33N 37°17' E 011°22'1212.4
2016-Jul-13 08:33N 37°22' E 011°08'1312.7
2016-Jul-13 07:33N 37°27' E 010°53'1312.8
2016-Jul-13 06:31N 37°32' E 010°38'3812.9
2016-Jul-13 03:32N 37°34' E 009°49'1413.3
2016-Jul-13 02:30N 37°35' E 009°32'1313.2
2016-Jul-13 01:33N 37°38' E 009°16'1313.3
2016-Jul-13 00:33N 37°43' E 009°01'1713.1
2016-Jul-12 23:14N 37°45' E 008°39'2312.7
2016-Jul-12 21:26N 37°42' E 008°11'8712.6
2016-Jul-12 14:31N 37°27' E 006°23'1313.2
2016-Jul-12 13:33N 37°26' E 006°07'1212.0
2016-Jul-12 12:33N 37°24' E 005°52'1212.0
2016-Jul-12 11:33N 37°22' E 005°37'1312.7
2016-Jul-12 10:33N 37°20' E 005°21'1313.0
2016-Jul-12 09:32N 37°17' E 005°05'2612.8
2016-Jul-12 07:29N 37°14' E 004°32'1112.1
2016-Jul-12 06:33N 37°12' E 004°18'1312.6
2016-Jul-12 05:33N 37°10' E 004°02'1313.0
2016-Jul-12 04:33N 37°08' E 003°46'1312.5
2016-Jul-12 03:33N 37°05' E 003°31'1312.6
2016-Jul-12 02:33N 37°03' E 003°15'1312.8
2016-Jul-12 01:33N 37°02' E 002°59'1312.8
2016-Jul-12 00:33N 37°00' E 002°43'1312.9
2016-Jul-11 23:33N 36°58' E 002°28'1312.4
2016-Jul-11 22:33N 36°56' E 002°12'1212.6
2016-Jul-11 21:33N 36°54' E 001°57'1312.6
2016-Jul-11 20:33N 36°52' E 001°41'1212.4
2016-Jul-11 19:33N 36°50' E 001°26'1312.6
2016-Jul-11 18:32N 36°47' E 001°10'1212.5
2016-Jul-11 17:33N 36°46' E 000°55'1212.0
2016-Jul-11 16:33N 36°44' E 000°40'1211.9
2016-Jul-11 15:33N 36°42' E 000°25'1212.1
2016-Jul-11 14:33N 36°40' E 000°11'1413.8
2016-Jul-11 13:33N 36°38' W 000°07'1312.8
2016-Jul-11 12:32N 36°36' W 000°22'1212.7
2016-Jul-11 11:33N 36°34' W 000°38'1312.8
2016-Jul-11 10:33N 36°32' W 000°54'21012.8
2016-Jul-10 18:07N 36°00' W 005°11'713.3
2016-Jul-10 17:33N 35°59' W 005°20'11911.4
2016-Jul-10 07:06N 35°57' W 007°47'3112.1
2016-Jul-10 04:32N 35°59' W 008°25'1212.1
2016-Jul-10 03:32N 35°59' W 008°40'1211.9
2016-Jul-10 02:33N 35°59' W 008°54'1412.0
2016-Jul-10 01:25N 36°00' W 009°11'1212.0
2016-Jul-10 00:26N 36°02' W 009°26'1212.0
2016-Jul-09 23:25N 36°04' W 009°41'1012.2
2016-Jul-09 22:33N 36°04' W 009°54'1212.3
2016-Jul-09 21:33N 36°05' W 010°09'1212.2
2016-Jul-09 20:33N 36°06' W 010°24'1212.2
2016-Jul-09 19:33N 36°07' W 010°39'1212.2
2016-Jul-09 18:33N 36°07' W 010°54'1212.0
2016-Jul-09 17:33N 36°08' W 011°09'1212.0
2016-Jul-09 16:33N 36°09' W 011°24'1412.6
2016-Jul-09 15:29N 36°09' W 011°40'1111.9
2016-Jul-09 14:33N 36°09' W 011°54'1212.0
2016-Jul-09 13:33N 36°10' W 012°09'1212.1
2016-Jul-09 12:33N 36°10' W 012°24'1212.0
2016-Jul-09 11:33N 36°11' W 012°39'1212.0
2016-Jul-09 10:33N 36°12' W 012°54'1212.0
2016-Jul-09 09:33N 36°13' W 013°08'1211.9
2016-Jul-09 08:33N 36°14' W 013°23'1211.8
2016-Jul-09 07:33N 36°14' W 013°38'1212.0
2016-Jul-09 06:33N 36°14' W 013°52'2412.2
2016-Jul-09 04:33N 36°16' W 014°23'1212.0
2016-Jul-09 03:32N 36°16' W 014°38'2412.2
2016-Jul-09 01:33N 36°17' W 015°08'1612.3
2016-Jul-09 00:15N 36°17' W 015°28'812.0
2016-Jul-08 23:33N 36°17' W 015°38'1312.2
2016-Jul-08 22:29N 36°17' W 015°54'1112.2
2016-Jul-08 21:33N 36°17' W 016°08'1212.4
2016-Jul-08 20:33N 36°16' W 016°23'1312.6
2016-Jul-08 19:32N 36°16' W 016°39'26312.3
2016-Jul-07 22:12N 36°09' W 022°06'2112.2
2016-Jul-07 20:27N 36°08' W 022°32'1212.1
2016-Jul-07 19:29N 36°07' W 022°46'1312.1
2016-Jul-07 18:22N 36°06' W 023°03'1012.2
2016-Jul-07 17:32N 36°05' W 023°15'1313.3
2016-Jul-07 16:33N 36°05' W 023°32'1312.9
2016-Jul-07 15:33N 36°04' W 023°47'1312.6
2016-Jul-07 14:33N 36°03' W 024°03'1312.8
2016-Jul-07 13:33N 36°02' W 024°19'1312.7
2016-Jul-07 12:33N 36°02' W 024°34'1312.9
2016-Jul-07 11:33N 36°01' W 024°50'1312.8
2016-Jul-07 10:33N 35°60' W 025°06'1312.7
2016-Jul-07 09:33N 35°60' W 025°22'1212.0
2016-Jul-07 08:33N 35°60' W 025°37'1212.3
2016-Jul-07 07:34N 35°60' W 025°52'1212.4
2016-Jul-07 06:34N 35°60' W 026°07'1312.6
2016-Jul-07 05:33N 36°00' W 026°23'1212.3
2016-Jul-07 04:33N 36°01' W 026°38'1312.8
2016-Jul-07 03:33N 36°01' W 026°54'1312.9
2016-Jul-07 02:33N 36°01' W 027°10'1312.8
2016-Jul-07 01:33N 36°00' W 027°26'1212.3
2016-Jul-07 00:33N 36°00' W 027°41'1212.3
2016-Jul-06 23:34N 36°00' W 027°56'1212.1
2016-Jul-06 22:33N 36°00' W 028°11'1212.1
2016-Jul-06 21:33N 36°00' W 028°26'1212.1
2016-Jul-06 20:33N 35°60' W 028°41'1312.2
2016-Jul-06 19:32N 36°00' W 028°56'1212.4
2016-Jul-06 18:33N 36°00' W 029°11'1212.2
2016-Jul-06 17:32N 35°60' W 029°27'1513.7
2016-Jul-06 16:29N 36°00' W 029°45'1314.1
2016-Jul-06 15:33N 36°00' W 030°01'1312.8
2016-Jul-06 14:33N 35°59' W 030°16'1312.9
2016-Jul-06 13:32N 35°58' W 030°32'1412.9
2016-Jul-06 12:26N 35°57' W 030°50'  
Track history (hours):
 
Tides and Currents Weather Stations Pressure Air Temp Water Temp Dewpoint Dewpoint Depression Visibility Wind Speed Wind Dir Waves Ship Positions

Pacific Journey

Last reported at 2016-Jul-16 00:24 UTC. Time now 2016-Jul-28 16:28 UTC.
Position N 38°03' E 025°42'.
Warning: this ship's position is 12 days out of date.

Length 180 m; draft 10.7 m.

Type: Ship. MMSI: 371467000.

Date/timePositionNaut miles runAvg speedWind from/ knotsBaromVisibWave heightAir tempDewpointWater temp
2016-Jul-16 00:24N 38°03' E 025°42'1012.0
2016-Jul-15 23:33N 38°00' E 025°29'1 1.0
2016-Jul-15 22:31N 37°60' E 025°28'25 7.5
2016-Jul-15 19:07N 38°02' E 024°56'712.7
2016-Jul-15 18:33N 38°02' E 024°47'1111.5
2016-Jul-15 17:34N 37°55' E 024°36'1312.5
2016-Jul-15 16:33N 37°43' E 024°30'1712.1
2016-Jul-15 15:09N 37°28' E 024°20'712.1
2016-Jul-15 14:33N 37°22' E 024°14'1313.0
2016-Jul-15 13:34N 37°12' E 024°05'1212.2
2016-Jul-15 12:34N 37°02' E 023°56'1312.5
2016-Jul-15 11:33N 36°52' E 023°47'1312.6
2016-Jul-15 10:34N 36°41' E 023°39'1312.6
2016-Jul-15 09:33N 36°30' E 023°32'1312.7
2016-Jul-15 08:33N 36°19' E 023°24'1312.7
2016-Jul-15 07:33N 36°07' E 023°17'1212.2
2016-Jul-15 06:33N 36°01' E 023°04'32112.8
2016-Jul-14 05:32N 36°16' E 016°27'1212.5
2016-Jul-14 04:33N 36°17' E 016°12'1412.6
2016-Jul-14 03:25N 36°17' E 015°54'1112.7
2016-Jul-14 02:34N 36°18' E 015°41'1312.8
2016-Jul-14 01:34N 36°19' E 015°25'14212.7
2016-Jul-13 14:19N 36°51' E 012°33'1013.9
2016-Jul-13 13:33N 36°54' E 012°20'1312.9
2016-Jul-13 12:33N 36°59' E 012°05'1312.7
2016-Jul-13 11:33N 37°04' E 011°50'1312.9
2016-Jul-13 10:33N 37°10' E 011°36'1312.9
2016-Jul-13 09:33N 37°17' E 011°22'1212.4
2016-Jul-13 08:33N 37°22' E 011°08'1312.7
2016-Jul-13 07:33N 37°27' E 010°53'1312.8
2016-Jul-13 06:31N 37°32' E 010°38'3812.9
2016-Jul-13 03:32N 37°34' E 009°49'1413.3
2016-Jul-13 02:30N 37°35' E 009°32'1313.2
2016-Jul-13 01:33N 37°38' E 009°16'1313.3
2016-Jul-13 00:33N 37°43' E 009°01'1713.1
2016-Jul-12 23:14N 37°45' E 008°39'2312.7
2016-Jul-12 21:26N 37°42' E 008°11'8712.6
2016-Jul-12 14:31N 37°27' E 006°23'1313.2
2016-Jul-12 13:33N 37°26' E 006°07'1212.0
2016-Jul-12 12:33N 37°24' E 005°52'1212.0
2016-Jul-12 11:33N 37°22' E 005°37'1312.7
2016-Jul-12 10:33N 37°20' E 005°21'1313.0
2016-Jul-12 09:32N 37°17' E 005°05'2612.8
2016-Jul-12 07:29N 37°14' E 004°32'1112.1
2016-Jul-12 06:33N 37°12' E 004°18'1312.6
2016-Jul-12 05:33N 37°10' E 004°02'1313.0
2016-Jul-12 04:33N 37°08' E 003°46'1312.5
2016-Jul-12 03:33N 37°05' E 003°31'1312.6
2016-Jul-12 02:33N 37°03' E 003°15'1312.8
2016-Jul-12 01:33N 37°02' E 002°59'1312.8
2016-Jul-12 00:33N 37°00' E 002°43'1312.9
2016-Jul-11 23:33N 36°58' E 002°28'1312.4
2016-Jul-11 22:33N 36°56' E 002°12'1212.6
2016-Jul-11 21:33N 36°54' E 001°57'1312.6
2016-Jul-11 20:33N 36°52' E 001°41'1212.4
2016-Jul-11 19:33N 36°50' E 001°26'1312.6
2016-Jul-11 18:32N 36°47' E 001°10'1212.5
2016-Jul-11 17:33N 36°46' E 000°55'1212.0
2016-Jul-11 16:33N 36°44' E 000°40'1211.9
2016-Jul-11 15:33N 36°42' E 000°25'1212.1
2016-Jul-11 14:33N 36°40' E 000°11'1413.8
2016-Jul-11 13:33N 36°38' W 000°07'1312.8
2016-Jul-11 12:32N 36°36' W 000°22'1212.7
2016-Jul-11 11:33N 36°34' W 000°38'1312.8
2016-Jul-11 10:33N 36°32' W 000°54'21012.8
2016-Jul-10 18:07N 36°00' W 005°11'713.3
2016-Jul-10 17:33N 35°59' W 005°20'11911.4
2016-Jul-10 07:06N 35°57' W 007°47'3112.1
2016-Jul-10 04:32N 35°59' W 008°25'1212.1
2016-Jul-10 03:32N 35°59' W 008°40'1211.9
2016-Jul-10 02:33N 35°59' W 008°54'1412.0
2016-Jul-10 01:25N 36°00' W 009°11'1212.0
2016-Jul-10 00:26N 36°02' W 009°26'1212.0
2016-Jul-09 23:25N 36°04' W 009°41'1012.2
2016-Jul-09 22:33N 36°04' W 009°54'1212.3
2016-Jul-09 21:33N 36°05' W 010°09'1212.2
2016-Jul-09 20:33N 36°06' W 010°24'1212.2
2016-Jul-09 19:33N 36°07' W 010°39'1212.2
2016-Jul-09 18:33N 36°07' W 010°54'1212.0
2016-Jul-09 17:33N 36°08' W 011°09'1212.0
2016-Jul-09 16:33N 36°09' W 011°24'1412.6
2016-Jul-09 15:29N 36°09' W 011°40'1111.9
2016-Jul-09 14:33N 36°09' W 011°54'1212.0
2016-Jul-09 13:33N 36°10' W 012°09'1212.1
2016-Jul-09 12:33N 36°10' W 012°24'1212.0
2016-Jul-09 11:33N 36°11' W 012°39'1212.0
2016-Jul-09 10:33N 36°12' W 012°54'1212.0
2016-Jul-09 09:33N 36°13' W 013°08'1211.9
2016-Jul-09 08:33N 36°14' W 013°23'1211.8
2016-Jul-09 07:33N 36°14' W 013°38'1212.0
2016-Jul-09 06:33N 36°14' W 013°52'2412.2
2016-Jul-09 04:33N 36°16' W 014°23'1212.0
2016-Jul-09 03:32N 36°16' W 014°38'2412.2
2016-Jul-09 01:33N 36°17' W 015°08'1612.3
2016-Jul-09 00:15N 36°17' W 015°28'812.0
2016-Jul-08 23:33N 36°17' W 015°38'1312.2
2016-Jul-08 22:29N 36°17' W 015°54'1112.2
2016-Jul-08 21:33N 36°17' W 016°08'1212.4
2016-Jul-08 20:33N 36°16' W 016°23'1312.6
2016-Jul-08 19:32N 36°16' W 016°39'26312.3
2016-Jul-07 22:12N 36°09' W 022°06'2112.2
2016-Jul-07 20:27N 36°08' W 022°32'1212.1
2016-Jul-07 19:29N 36°07' W 022°46'1312.1
2016-Jul-07 18:22N 36°06' W 023°03'1012.2
2016-Jul-07 17:32N 36°05' W 023°15'1313.3
2016-Jul-07 16:33N 36°05' W 023°32'1312.9
2016-Jul-07 15:33N 36°04' W 023°47'1312.6
2016-Jul-07 14:33N 36°03' W 024°03'1312.8
2016-Jul-07 13:33N 36°02' W 024°19'1312.7
2016-Jul-07 12:33N 36°02' W 024°34'1312.9
2016-Jul-07 11:33N 36°01' W 024°50'1312.8
2016-Jul-07 10:33N 35°60' W 025°06'1312.7
2016-Jul-07 09:33N 35°60' W 025°22'1212.0
2016-Jul-07 08:33N 35°60' W 025°37'1212.3
2016-Jul-07 07:34N 35°60' W 025°52'1212.4
2016-Jul-07 06:34N 35°60' W 026°07'1312.6
2016-Jul-07 05:33N 36°00' W 026°23'1212.3
2016-Jul-07 04:33N 36°01' W 026°38'1312.8
2016-Jul-07 03:33N 36°01' W 026°54'1312.9
2016-Jul-07 02:33N 36°01' W 027°10'1312.8
2016-Jul-07 01:33N 36°00' W 027°26'1212.3
2016-Jul-07 00:33N 36°00' W 027°41'1212.3
2016-Jul-06 23:34N 36°00' W 027°56'1212.1
2016-Jul-06 22:33N 36°00' W 028°11'1212.1
2016-Jul-06 21:33N 36°00' W 028°26'1212.1
2016-Jul-06 20:33N 35°60' W 028°41'1312.2
2016-Jul-06 19:32N 36°00' W 028°56'1212.4
2016-Jul-06 18:33N 36°00' W 029°11'1212.2
2016-Jul-06 17:32N 35°60' W 029°27'1513.7
2016-Jul-06 16:29N 36°00' W 029°45'1314.1
2016-Jul-06 15:33N 36°00' W 030°01'1312.8
2016-Jul-06 14:33N 35°59' W 030°16'1312.9
2016-Jul-06 13:32N 35°58' W 030°32'1412.9
2016-Jul-06 12:26N 35°57' W 030°50'  

Dump ship's entire track history